Dallas, TX

9:12 AM CST on December 05, 2016 (GMT -0600)
MAYOR'S WAY | | Change Station

Elev 492 ft 32.80 °N, 96.81 °W | Updated 4 seconds ago

Overcast
Overcast
47.5 °F
Feels Like 44 °F
N
7.0
Wind Variable Wind from ENE

Today
High -- | Low -- °F
--% Chance of Precip.
Yesterday
High -- | Low -- °F
Precip. -- in
Pressure 29.91 in
Visibility 8.0 miles
Clouds Overcast 1200 ft
Windchill 44 °F
Dew Point 43 °F
Humidity 85%
Rainfall 0.00 in
Snow Depth Not available.
7:15 AM 5:20 PM
Waxing Crescent, 32% visible
METAR KDAL 051453Z 11007KT 8SM OVC012 09/07 A2991 RMK AO2 SLP127 T00940067 58002
Pressure 29.91 in
Visibility 8.0 miles
Clouds Overcast 1200 ft
Windchill 44 °F
Dew Point 43 °F
Humidity 85%
Rainfall 0.00 in
Snow Depth Not available.
7:15 AM 5:20 PM
Waxing Crescent, 32% visible
METAR KDAL 051453Z 11007KT 8SM OVC012 09/07 A2991 RMK AO2 SLP127 T00940067 58002

10-Day Weather Forecast

Almanac

Astronomy

Dec. 05, 2016 Rise Set
Actual Time
Civil Twilight
Nautical Twilight
Astronomical Twilight
Moon
Length of Visible Light
Length of Day
Tomorrow will be .
, % of the Moon is Illuminated

Today's Extremes

State Highs State Lows

Community

WunderPhotos

Upload Photos

1,955,780 photos uploaded!

WunderBlog® & News

Nearby

Air Quality

  Air Quality AQ Index Pollutant
Not available.

Snow Depth

Station Depth Elevation

Earthquake Activity

City Distance Mag. Time & Date
Minimum magnitude displayed is 2.5.

Coastal Water Temperatures

Place Temperature

Stations

Nearby Weather Stations

Station Location Temp. Windchill Dew Point Humidity Wind Precip. Elev Updated Type
                   

Watches & Warnings

There are currently no watches in effect.